Time;durP1;ratioP1;P1;durP2;ratioP2;P2;SDS_P1;SDS_P2;PMS_P1;PMS_P2;Temp;Humidity;BMP_temperature;BMP_pressure;BME280_temperature;BME280_humidity;BME280_pressure;Samples;Min_cycle;Max_cycle;Signal;HPM_P1;HPM_P2
2023/05/08 00:01:08;;;;;;;5.60;4.60;;;;;;;;;;5073167;28;20452;-60
2023/05/08 00:03:35;;;;;;;4.60;4.30;;;;;;;;;;5073098;28;20875;-59
2023/05/08 00:06:04;;;;;;;4.83;4.43;;;;;;;;;;5072927;28;20442;-59
2023/05/08 00:08:31;;;;;;;5.23;4.73;;;;;;;;;;5073178;28;20453;-60
2023/05/08 00:10:58;;;;;;;4.60;4.13;;;;;;;;;;5073064;28;20842;-60
2023/05/08 00:13:26;;;;;;;4.97;4.47;;;;;;;;;;5073028;28;20542;-59
2023/05/08 00:15:53;;;;;;;5.20;4.80;;;;;;;;;;5073186;28;20447;-60
2023/05/08 00:18:20;;;;;;;4.43;4.03;;;;;;;;;;5072817;28;20872;-60
2023/05/08 00:20:47;;;;;;;4.63;4.33;;;;;;;;;;5073009;28;20443;-60
2023/05/08 00:23:14;;;;;;;5.60;5.20;;;;;;;;;;5072988;28;20452;-60
2023/05/08 00:25:41;;;;;;;4.97;4.60;;;;;;;;;;5072971;28;21010;-59
2023/05/08 00:28:08;;;;;;;5.20;4.80;;;;;;;;;;5072871;28;20459;-59
2023/05/08 00:30:36;;;;;;;4.67;4.30;;;;;;;;;;5072699;28;20479;-60
2023/05/08 00:33:03;;;;;;;5.17;4.77;;;;;;;;;;5072599;28;20448;-59
2023/05/08 00:35:30;;;;;;;6.03;5.33;;;;;;;;;;5072872;28;20458;-59
2023/05/08 00:37:57;;;;;;;5.30;4.90;;;;;;;;;;5072849;28;20454;-59
2023/05/08 00:40:24;;;;;;;5.50;5.00;;;;;;;;;;5072563;28;20543;-59
2023/05/08 00:42:51;;;;;;;5.63;5.20;;;;;;;;;;5072604;28;20452;-59
2023/05/08 00:45:18;;;;;;;5.10;4.77;;;;;;;;;;5072608;28;20501;-59
2023/05/08 00:47:46;;;;;;;5.63;5.13;;;;;;;;;;5072503;28;20458;-59
2023/05/08 00:50:13;;;;;;;5.50;5.10;;;;;;;;;;5072630;28;20475;-59
2023/05/08 00:52:40;;;;;;;6.40;5.90;;;;;;;;;;5072690;28;20448;-60
2023/05/08 00:55:08;;;;;;;5.97;5.47;;;;;;;;;;5072592;28;20542;-59
2023/05/08 00:57:35;;;;;;;5.40;5.00;;;;;;;;;;5072753;28;20424;-59
2023/05/08 01:00:04;;;;;;;5.97;4.90;;;;;;;;;;5072611;28;20448;-59
2023/05/08 01:02:32;;;;;;;5.77;5.27;;;;;;;;;;5072599;28;20448;-59
2023/05/08 01:05:00;;;;;;;5.17;4.70;;;;;;;;;;5072596;28;20444;-59
2023/05/08 01:07:27;;;;;;;5.30;4.80;;;;;;;;;;5072534;28;20886;-59
2023/05/08 01:09:55;;;;;;;5.50;5.10;;;;;;;;;;5072407;28;20476;-59
2023/05/08 01:12:27;;;;;;;7.33;5.80;;;;;;;;;;5075364;28;20448;-59
2023/05/08 01:15:01;;;;;;;4.93;4.53;;;;;;;;;;5076135;28;20479;-59
2023/05/08 01:17:35;;;;;;;4.97;4.67;;;;;;;;;;5076391;28;20542;-60
2023/05/08 01:20:09;;;;;;;5.50;5.00;;;;;;;;;;5076254;28;20480;-59
2023/05/08 01:22:45;;;;;;;6.37;5.70;;;;;;;;;;5076109;28;20973;-59
2023/05/08 01:25:23;;;;;;;5.67;5.27;;;;;;;;;;5076266;28;20432;-59
2023/05/08 01:28:03;;;;;;;11.60;6.10;;;;;;;;;;5076139;28;20454;-60
2023/05/08 01:31:00;;;;;;;7.70;5.30;;;;;;;;;;5075961;28;20494;-59
2023/05/08 01:33:34;;;;;;;5.60;5.10;;;;;;;;;;5014023;28;20462;-59
2023/05/08 01:36:06;;;;;;;6.63;6.03;;;;;;;;;;5064116;28;20455;-59
2023/05/08 01:38:33;;;;;;;6.53;5.40;;;;;;;;;;5075933;28;20822;-59
2023/05/08 01:41:04;;;;;;;6.57;5.57;;;;;;;;;;5075745;28;20475;-59
2023/05/08 01:43:33;;;;;;;5.50;5.10;;;;;;;;;;5075737;28;20454;-58
2023/05/08 01:46:03;;;;;;;5.50;5.10;;;;;;;;;;5075609;28;20497;-60
2023/05/08 01:48:33;;;;;;;5.90;5.40;;;;;;;;;;5075763;28;20807;-59
2023/05/08 01:51:02;;;;;;;6.47;5.97;;;;;;;;;;5075902;28;20521;-58
2023/05/08 01:53:31;;;;;;;6.60;5.73;;;;;;;;;;5075713;28;20538;-58
2023/05/08 01:56:00;;;;;;;5.70;5.20;;;;;;;;;;5075621;28;20480;-59
2023/05/08 01:58:27;;;;;;;6.10;5.50;;;;;;;;;;5075413;28;20447;-59
2023/05/08 02:00:55;;;;;;;6.93;6.27;;;;;;;;;;5075672;28;20488;-60
2023/05/08 02:03:23;;;;;;;5.60;5.20;;;;;;;;;;5075422;28;20946;-58
2023/05/08 02:05:52;;;;;;;5.93;5.43;;;;;;;;;;5075640;28;20535;-58
2023/05/08 02:08:21;;;;;;;5.70;5.20;;;;;;;;;;5075591;28;20452;-58
2023/05/08 02:10:50;;;;;;;5.30;4.90;;;;;;;;;;5075197;28;20549;-59
2023/05/08 02:13:18;;;;;;;5.90;5.50;;;;;;;;;;5075154;28;20969;-59
2023/05/08 02:15:46;;;;;;;6.20;5.70;;;;;;;;;;5075262;28;20447;-58
2023/05/08 02:18:15;;;;;;;5.47;5.07;;;;;;;;;;5075275;28;20789;-58
2023/05/08 02:20:42;;;;;;;7.73;6.00;;;;;;;;;;5075209;28;20462;-59
2023/05/08 02:23:11;;;;;;;6.50;6.00;;;;;;;;;;5074027;28;20935;-58
2023/05/08 02:25:38;;;;;;;5.47;5.03;;;;;;;;;;5074891;28;20429;-58
2023/05/08 02:28:07;;;;;;;6.40;5.90;;;;;;;;;;5075125;28;20465;-59
2023/05/08 02:30:34;;;;;;;5.40;4.90;;;;;;;;;;5074974;28;20570;-58
2023/05/08 02:33:01;;;;;;;6.57;6.00;;;;;;;;;;5074977;28;20456;-58
2023/05/08 02:35:30;;;;;;;8.20;5.90;;;;;;;;;;5075206;28;20444;-59
2023/05/08 02:37:57;;;;;;;5.87;5.33;;;;;;;;;;5074757;28;20505;-58
2023/05/08 02:40:28;;;;;;;5.90;5.50;;;;;;;;;;5074702;28;20472;-58
2023/05/08 02:42:55;;;;;;;5.93;5.43;;;;;;;;;;5074775;28;20447;-58
2023/05/08 02:45:23;;;;;;;5.90;5.40;;;;;;;;;;5074717;28;20444;-60
2023/05/08 02:47:54;;;;;;;5.73;5.33;;;;;;;;;;5074608;28;20425;-59
2023/05/08 02:50:22;;;;;;;5.80;5.40;;;;;;;;;;5074636;28;20454;-58
2023/05/08 02:52:51;;;;;;;6.13;5.63;;;;;;;;;;5074447;28;20448;-59
2023/05/08 02:55:25;;;;;;;6.10;5.70;;;;;;;;;;5074522;28;20454;-59
2023/05/08 02:58:02;;;;;;;6.93;6.23;;;;;;;;;;5074502;28;20883;-58
2023/05/08 03:00:31;;;;;;;8.77;5.50;;;;;;;;;;5074411;28;20500;-59
2023/05/08 03:03:01;;;;;;;6.37;5.87;;;;;;;;;;5074235;28;20429;-59
2023/05/08 03:05:30;;;;;;;6.10;5.60;;;;;;;;;;5074360;28;20434;-59
2023/05/08 03:08:00;;;;;;;6.17;5.60;;;;;;;;;;5074345;28;20498;-59
2023/05/08 03:10:29;;;;;;;6.43;5.93;;;;;;;;;;5074195;28;20953;-59
2023/05/08 03:12:57;;;;;;;7.10;6.03;;;;;;;;;;5074066;28;20422;-60
2023/05/08 03:15:26;;;;;;;7.50;5.53;;;;;;;;;;5073952;28;20429;-60
2023/05/08 03:17:55;;;;;;;6.03;5.43;;;;;;;;;;5074113;28;20439;-59
2023/05/08 03:20:23;;;;;;;8.50;6.43;;;;;;;;;;5074151;28;21030;-59
2023/05/08 03:22:51;;;;;;;7.70;5.77;;;;;;;;;;5073955;28;20531;-58
2023/05/08 03:25:19;;;;;;;6.13;5.63;;;;;;;;;;5073824;28;20480;-58
2023/05/08 03:27:46;;;;;;;6.20;5.60;;;;;;;;;;5073721;28;20449;-58
2023/05/08 03:30:15;;;;;;;6.40;5.80;;;;;;;;;;5073521;28;20513;-58
2023/05/08 03:32:44;;;;;;;6.73;6.20;;;;;;;;;;5073793;28;20452;-59
2023/05/08 03:35:11;;;;;;;6.57;5.87;;;;;;;;;;5073370;28;20450;-60
2023/05/08 03:37:38;;;;;;;6.93;6.40;;;;;;;;;;5073630;28;20450;-59
2023/05/08 03:40:08;;;;;;;7.30;6.67;;;;;;;;;;5073332;28;20444;-59
2023/05/08 03:42:35;;;;;;;6.57;6.07;;;;;;;;;;5073461;28;20459;-59
2023/05/08 03:45:03;;;;;;;9.77;6.77;;;;;;;;;;5073495;28;20480;-59
2023/05/08 03:47:32;;;;;;;6.33;5.80;;;;;;;;;;5073504;28;20935;-59
2023/05/08 03:49:59;;;;;;;12.03;6.03;;;;;;;;;;5073424;28;20444;-60
2023/05/08 03:52:26;;;;;;;6.70;6.10;;;;;;;;;;5073302;28;20507;-59
2023/05/08 03:54:53;;;;;;;6.83;6.10;;;;;;;;;;5073463;28;20452;-59
2023/05/08 03:57:20;;;;;;;7.13;6.43;;;;;;;;;;5073437;28;20440;-59
2023/05/08 03:59:51;;;;;;;6.40;5.80;;;;;;;;;;5073340;28;20452;-59
2023/05/08 04:02:22;;;;;;;13.20;6.97;;;;;;;;;;5073591;28;20490;-59
2023/05/08 04:04:53;;;;;;;8.77;6.43;;;;;;;;;;5073217;28;20511;-59
2023/05/08 04:07:28;;;;;;;6.97;5.93;;;;;;;;;;5073203;28;20867;-59
2023/05/08 04:09:58;;;;;;;10.63;6.80;;;;;;;;;;5073302;28;20426;-59
2023/05/08 04:12:28;;;;;;;7.00;6.40;;;;;;;;;;5073113;28;20514;-59
2023/05/08 04:14:59;;;;;;;6.87;6.00;;;;;;;;;;5073069;28;20448;-59
2023/05/08 04:17:30;;;;;;;6.47;5.97;;;;;;;;;;5073044;28;20601;-59
2023/05/08 04:20:01;;;;;;;7.67;6.90;;;;;;;;;;5072995;28;20454;-59
2023/05/08 04:22:28;;;;;;;11.75;7.50;;;;;;;;;;5073135;28;20452;-59
2023/05/08 04:24:59;;;;;;;10.73;6.82;;;;;;;;;;5073020;28;20228;-59
2023/05/08 04:27:26;;;;;;;8.10;7.30;;;;;;;;;;5072963;28;20221;-59
2023/05/08 04:29:53;;;;;;;8.00;7.30;;;;;;;;;;5072825;28;20448;-59
2023/05/08 04:32:21;;;;;;;8.10;7.30;;;;;;;;;;5072751;28;20464;-58
2023/05/08 04:34:48;;;;;;;9.80;7.53;;;;;;;;;;5072733;28;20196;-59
2023/05/08 04:37:25;;;;;;;7.47;6.87;;;;;;;;;;5072911;28;20194;-58
2023/05/08 04:39:52;;;;;;;7.70;7.00;;;;;;;;;;5072864;28;20819;-58
2023/05/08 04:42:19;;;;;;;7.70;7.00;;;;;;;;;;5072542;28;20476;-58
2023/05/08 04:44:47;;;;;;;7.88;7.07;;;;;;;;;;5072847;28;20200;-59
2023/05/08 04:47:13;;;;;;;7.70;7.00;;;;;;;;;;5075492;28;20196;-59
2023/05/08 04:49:40;;;;;;;7.97;7.03;;;;;;;;;;5077033;28;20193;-59
2023/05/08 04:52:07;;;;;;;7.43;6.73;;;;;;;;;;5076804;28;20695;-59
2023/05/08 04:54:36;;;;;;;7.57;6.88;;;;;;;;;;5076926;28;20453;-59
2023/05/08 04:57:03;;;;;;;9.35;6.80;;;;;;;;;;5076751;28;20292;-59
2023/05/08 04:59:30;;;;;;;7.78;7.05;;;;;;;;;;5076560;28;20196;-59
2023/05/08 05:01:57;;;;;;;7.22;6.63;;;;;;;;;;5076727;28;20189;-61
2023/05/08 05:04:24;;;;;;;7.93;6.80;;;;;;;;;;5076594;28;20258;-60
2023/05/08 05:06:51;;;;;;;7.00;6.18;;;;;;;;;;5076613;28;20823;-61
2023/05/08 05:09:18;;;;;;;7.80;7.20;;;;;;;;;;5076518;28;20288;-61
2023/05/08 05:11:46;;;;;;;6.88;6.25;;;;;;;;;;5076383;28;20217;-60
2023/05/08 05:14:13;;;;;;;7.25;6.60;;;;;;;;;;5076305;28;20196;-61
2023/05/08 05:16:40;;;;;;;10.70;6.47;;;;;;;;;;5076417;28;20280;-61
2023/05/08 05:19:07;;;;;;;7.00;6.40;;;;;;;;;;5076360;28;20276;-61
2023/05/08 05:21:36;;;;;;;6.18;5.57;;;;;;;;;;5076166;28;20196;-61
2023/05/08 05:24:03;;;;;;;8.70;6.50;;;;;;;;;;5076120;28;20204;-60
2023/05/08 05:26:30;;;;;;;6.68;6.10;;;;;;;;;;5076149;28;20448;-61
2023/05/08 05:28:58;;;;;;;7.95;6.75;;;;;;;;;;5075805;28;20247;-61
2023/05/08 05:31:25;;;;;;;6.83;6.23;;;;;;;;;;5076242;28;20222;-60
2023/05/08 05:33:53;;;;;;;6.70;6.07;;;;;;;;;;5075930;28;20890;-61
2023/05/08 05:36:20;;;;;;;6.10;5.50;;;;;;;;;;5075912;28;20423;-60
2023/05/08 05:38:47;;;;;;;7.90;6.63;;;;;;;;;;5075862;28;20454;-60
2023/05/08 05:41:14;;;;;;;8.73;6.60;;;;;;;;;;5075628;28;20898;-60
2023/05/08 05:43:41;;;;;;;6.00;5.40;;;;;;;;;;5075861;28;20452;-62
2023/05/08 05:46:10;;;;;;;6.77;6.17;;;;;;;;;;5075693;28;20450;-58
2023/05/08 05:48:36;;;;;;;6.70;6.00;;;;;;;;;;5075621;28;20443;-59
2023/05/08 05:51:04;;;;;;;5.37;4.87;;;;;;;;;;5075468;28;20475;-59
2023/05/08 05:53:30;;;;;;;7.10;6.00;;;;;;;;;;5075570;28;20452;-59
2023/05/08 05:55:57;;;;;;;4.93;4.50;;;;;;;;;;5075333;28;20458;-59
2023/05/08 05:58:24;;;;;;;5.57;5.07;;;;;;;;;;5075209;28;20539;-59
2023/05/08 06:00:51;;;;;;;6.00;5.50;;;;;;;;;;5075438;28;20451;-59
2023/05/08 06:03:19;;;;;;;6.10;5.50;;;;;;;;;;5075389;28;20885;-59
2023/05/08 06:05:47;;;;;;;5.00;4.60;;;;;;;;;;5075409;28;20538;-59
2023/05/08 06:08:15;;;;;;;5.50;4.63;;;;;;;;;;5075276;28;20447;-60
2023/05/08 06:10:42;;;;;;;5.37;4.87;;;;;;;;;;5075187;28;20452;-60
2023/05/08 06:13:10;;;;;;;5.20;4.77;;;;;;;;;;5075123;28;21016;-60
2023/05/08 06:15:36;;;;;;;4.77;4.37;;;;;;;;;;5075137;28;20488;-59
2023/05/08 06:18:03;;;;;;;7.93;5.07;;;;;;;;;;5075259;28;20452;-60
2023/05/08 06:20:32;;;;;;;5.93;5.27;;;;;;;;;;5075127;28;20454;-60
2023/05/08 06:22:59;;;;;;;4.93;4.63;;;;;;;;;;5075018;28;20545;-60
2023/05/08 06:25:27;;;;;;;5.17;4.70;;;;;;;;;;5075180;28;20458;-60
2023/05/08 06:27:53;;;;;;;4.57;4.20;;;;;;;;;;5075022;28;20458;-59
2023/05/08 06:30:20;;;;;;;5.70;4.77;;;;;;;;;;5074977;28;20426;-59
2023/05/08 06:32:47;;;;;;;8.30;4.40;;;;;;;;;;5074766;28;20490;-59
2023/05/08 06:35:17;;;;;;;7.40;4.43;;;;;;;;;;5074913;28;20448;-60
2023/05/08 06:37:45;;;;;;;4.03;3.73;;;;;;;;;;5075018;28;20455;-60
2023/05/08 06:40:13;;;;;;;4.57;4.17;;;;;;;;;;5074511;28;21022;-60
2023/05/08 06:42:41;;;;;;;5.53;3.40;;;;;;;;;;5074814;28;20448;-60
2023/05/08 06:45:08;;;;;;;4.00;3.27;;;;;;;;;;5074709;28;20878;-59
2023/05/08 06:47:35;;;;;;;3.43;3.23;;;;;;;;;;5074747;28;20942;-60
2023/05/08 06:50:03;;;;;;;3.60;3.33;;;;;;;;;;5074576;28;20431;-60
2023/05/08 06:52:30;;;;;;;3.33;3.13;;;;;;;;;;5074841;28;20533;-60
2023/05/08 06:54:58;;;;;;;3.53;3.23;;;;;;;;;;5074683;28;20866;-60
2023/05/08 06:57:28;;;;;;;3.60;3.30;;;;;;;;;;5074750;28;20910;-59
2023/05/08 06:59:55;;;;;;;3.03;2.70;;;;;;;;;;5074443;28;20482;-60
2023/05/08 07:02:22;;;;;;;3.10;2.87;;;;;;;;;;5074584;28;20449;-60
2023/05/08 07:04:49;;;;;;;3.53;3.23;;;;;;;;;;5074373;28;20486;-60
2023/05/08 07:07:16;;;;;;;3.63;3.00;;;;;;;;;;5074351;28;20490;-59
2023/05/08 07:09:43;;;;;;;2.90;2.70;;;;;;;;;;5077252;28;20447;-60
2023/05/08 07:12:11;;;;;;;3.83;3.53;;;;;;;;;;5089039;28;20472;-59
2023/05/08 07:14:38;;;;;;;3.23;2.93;;;;;;;;;;5087423;28;20483;-59
2023/05/08 07:17:06;;;;;;;4.13;3.63;;;;;;;;;;5075052;28;20539;-59
2023/05/08 07:19:33;;;;;;;3.10;2.90;;;;;;;;;;5094407;28;20447;-60
2023/05/08 07:22:00;;;;;;;2.70;2.50;;;;;;;;;;5094292;28;20524;-60
2023/05/08 07:24:27;;;;;;;3.30;3.10;;;;;;;;;;5094083;28;20933;-59
2023/05/08 07:26:54;;;;;;;3.77;3.47;;;;;;;;;;5094127;28;20889;-59
2023/05/08 07:29:22;;;;;;;4.07;3.20;;;;;;;;;;5094101;28;20546;-60
2023/05/08 07:31:50;;;;;;;3.43;3.17;;;;;;;;;;5093767;28;20825;-60
2023/05/08 07:34:17;;;;;;;3.10;2.80;;;;;;;;;;5094139;28;20591;-60
2023/05/08 07:36:44;;;;;;;4.30;3.30;;;;;;;;;;5094029;28;20972;-59
2023/05/08 07:39:12;;;;;;;2.73;2.53;;;;;;;;;;5093972;28;20447;-59
2023/05/08 07:41:39;;;;;;;2.60;2.40;;;;;;;;;;5093665;28;20840;-59
2023/05/08 07:44:06;;;;;;;3.50;2.90;;;;;;;;;;5074945;28;20990;-60
2023/05/08 07:46:35;;;;;;;5.27;2.80;;;;;;;;;;5073517;28;20450;-60
2023/05/08 07:49:03;;;;;;;2.60;2.40;;;;;;;;;;5073899;28;20827;-60
2023/05/08 07:51:30;;;;;;;2.93;2.63;;;;;;;;;;5073526;28;20509;-59
2023/05/08 07:53:57;;;;;;;3.13;2.53;;;;;;;;;;5073365;28;20455;-59
2023/05/08 07:56:24;;;;;;;2.90;2.70;;;;;;;;;;5073370;28;20488;-59
2023/05/08 07:58:51;;;;;;;2.80;2.60;;;;;;;;;;5083126;28;21011;-60
2023/05/08 08:01:18;;;;;;;2.70;2.50;;;;;;;;;;5083783;28;20538;-60
2023/05/08 08:03:46;;;;;;;2.50;2.30;;;;;;;;;;5085524;28;20478;-60
2023/05/08 08:06:13;;;;;;;2.97;2.77;;;;;;;;;;5082051;28;20440;-60
2023/05/08 08:08:41;;;;;;;2.87;2.67;;;;;;;;;;5082844;28;20537;-60
2023/05/08 08:11:08;;;;;;;2.80;2.40;;;;;;;;;;5083642;28;20945;-60
2023/05/08 08:13:35;;;;;;;2.40;2.10;;;;;;;;;;5081716;28;20475;-60
2023/05/08 08:16:03;;;;;;;3.63;2.67;;;;;;;;;;5082542;28;20862;-60
2023/05/08 08:18:30;;;;;;;4.20;2.07;;;;;;;;;;5083547;28;20838;-60
2023/05/08 08:20:58;;;;;;;2.90;2.60;;;;;;;;;;5075249;28;20451;-59
2023/05/08 08:23:25;;;;;;;2.63;2.30;;;;;;;;;;5072954;28;20479;-60
2023/05/08 08:25:53;;;;;;;2.60;2.40;;;;;;;;;;5082855;28;20446;-60
2023/05/08 08:28:20;;;;;;;3.77;2.53;;;;;;;;;;5082900;28;20879;-60
2023/05/08 08:30:47;;;;;;;2.30;2.10;;;;;;;;;;5081740;28;20539;-60
2023/05/08 08:33:14;;;;;;;2.87;2.67;;;;;;;;;;5083433;28;20475;-60
2023/05/08 08:35:41;;;;;;;2.60;2.40;;;;;;;;;;5082883;28;20808;-60
2023/05/08 08:38:09;;;;;;;4.10;2.77;;;;;;;;;;5081719;28;20852;-60
2023/05/08 08:40:39;;;;;;;4.90;2.40;;;;;;;;;;5082576;28;20818;-59
2023/05/08 08:43:06;;;;;;;3.23;2.90;;;;;;;;;;5083591;28;20447;-59
2023/05/08 08:45:33;;;;;;;4.93;2.67;;;;;;;;;;5081865;28;20472;-59
2023/05/08 08:48:02;;;;;;;3.30;2.73;;;;;;;;;;5082332;28;20438;-59
2023/05/08 08:50:32;;;;;;;2.37;2.17;;;;;;;;;;5072601;28;20459;-59
2023/05/08 08:53:01;;;;;;;2.80;2.20;;;;;;;;;;5072439;28;20511;-59
2023/05/08 08:55:30;;;;;;;2.90;2.70;;;;;;;;;;5072675;28;20875;-58
2023/05/08 08:58:01;;;;;;;2.63;2.43;;;;;;;;;;5072529;28;20452;-58
2023/05/08 09:00:29;;;;;;;2.57;2.40;;;;;;;;;;5072545;28;20517;-57
2023/05/08 09:02:56;;;;;;;2.30;2.10;;;;;;;;;;5072418;28;20531;-57
2023/05/08 09:05:25;;;;;;;2.97;2.67;;;;;;;;;;5072405;28;20448;-63
2023/05/08 09:07:55;;;;;;;2.70;2.50;;;;;;;;;;5072635;28;20443;-57
2023/05/08 09:10:23;;;;;;;2.60;2.40;;;;;;;;;;5072334;28;20919;-57
2023/05/08 09:12:51;;;;;;;3.20;2.20;;;;;;;;;;5072474;28;20549;-57
2023/05/08 09:15:18;;;;;;;2.50;2.30;;;;;;;;;;5072505;28;20444;-58
2023/05/08 09:17:45;;;;;;;4.33;2.37;;;;;;;;;;5072394;28;20443;-57
2023/05/08 09:20:14;;;;;;;2.10;1.90;;;;;;;;;;5072447;28;20483;-56
2023/05/08 09:22:41;;;;;;;2.30;2.10;;;;;;;;;;5072311;28;20816;-57
2023/05/08 09:25:09;;;;;;;3.27;1.87;;;;;;;;;;5072162;28;20444;-56
2023/05/08 09:27:36;;;;;;;3.10;2.80;;;;;;;;;;5080206;28;20444;-56
2023/05/08 09:30:05;;;;;;;2.73;2.10;;;;;;;;;;5080782;28;20525;-56
2023/05/08 09:32:33;;;;;;;2.20;2.10;;;;;;;;;;5083777;28;20517;-55
2023/05/08 09:35:00;;;;;;;3.50;2.63;;;;;;;;;;5086564;28;20447;-56
2023/05/08 09:37:28;;;;;;;2.67;2.47;;;;;;;;;;5084654;28;20498;-57
2023/05/08 09:39:55;;;;;;;2.63;2.17;;;;;;;;;;5085497;28;21016;-57
2023/05/08 09:42:24;;;;;;;2.60;2.40;;;;;;;;;;5086582;28;20483;-57
2023/05/08 09:44:51;;;;;;;1.83;1.73;;;;;;;;;;5080897;28;20785;-57
2023/05/08 09:47:21;;;;;;;2.17;1.90;;;;;;;;;;5083523;28;20449;-56
2023/05/08 09:49:57;;;;;;;2.90;2.50;;;;;;;;;;5085526;28;20967;-58
2023/05/08 09:52:25;;;;;;;2.30;2.10;;;;;;;;;;5084966;28;20808;-57
2023/05/08 09:54:58;;;;;;;2.30;2.03;;;;;;;;;;5078923;28;20951;-60
2023/05/08 09:57:25;;;;;;;2.90;2.37;;;;;;;;;;5095505;28;20790;-58
2023/05/08 09:59:52;;;;;;;2.60;1.90;;;;;;;;;;5095535;28;20504;-59
2023/05/08 10:02:20;;;;;;;2.07;1.90;;;;;;;;;;5088910;28;20447;-59
2023/05/08 10:04:47;;;;;;;3.77;2.27;;;;;;;;;;5080250;28;20883;-60
2023/05/08 10:07:14;;;;;;;3.20;2.57;;;;;;;;;;5083792;28;20441;-59
2023/05/08 10:09:58;;;;;;;2.77;2.40;;;;;;;;;;5086705;28;20444;-59
2023/05/08 10:12:25;;;;;;;1.93;1.83;;;;;;;;;;5092498;28;20441;-60
2023/05/08 10:14:52;;;;;;;2.20;2.00;;;;;;;;;;5083945;28;20529;-59
2023/05/08 10:17:27;;;;;;;2.50;2.30;;;;;;;;;;5085559;28;20809;-60
2023/05/08 10:19:56;;;;;;;4.50;2.20;;;;;;;;;;5092256;28;20446;-60
2023/05/08 10:22:25;;;;;;;6.70;2.03;;;;;;;;;;5095349;28;20448;-60
2023/05/08 10:24:53;;;;;;;3.57;1.70;;;;;;;;;;5085547;28;20833;-59
2023/05/08 10:27:26;;;;;;;14.93;3.00;;;;;;;;;;5087041;28;20445;-60
2023/05/08 10:29:54;;;;;;;4.73;2.43;;;;;;;;;;5082922;28;20445;-60
2023/05/08 10:32:24;;;;;;;5.07;1.77;;;;;;;;;;5082851;28;20450;-60
2023/05/08 10:34:53;;;;;;;39.17;5.50;;;;;;;;;;5074782;28;20453;-57
2023/05/08 10:37:20;;;;;;;6.70;1.77;;;;;;;;;;5074478;28;20487;-50
2023/05/08 10:39:47;;;;;;;3.43;1.97;;;;;;;;;;5085657;28;20544;-52
2023/05/08 10:42:14;;;;;;;2.50;2.00;;;;;;;;;;5083519;28;20481;-55
2023/05/08 10:44:41;;;;;;;5.10;2.00;;;;;;;;;;5085295;28;20463;-56
2023/05/08 10:47:10;;;;;;;99.50;9.90;;;;;;;;;;5085135;28;20813;-53
2023/05/08 10:49:44;;;;;;;3.30;2.30;;;;;;;;;;5085482;28;20457;-55
2023/05/08 10:52:16;;;;;;;39.87;4.07;;;;;;;;;;5084471;28;20802;-51
2023/05/08 10:54:48;;;;;;;8.53;2.90;;;;;;;;;;5083747;28;20847;-56
2023/05/08 10:57:15;;;;;;;5.40;1.80;;;;;;;;;;5083633;28;20450;-55
2023/05/08 10:59:45;;;;;;;2.23;1.70;;;;;;;;;;5080949;28;20464;-56
2023/05/08 11:02:12;;;;;;;61.63;5.40;;;;;;;;;;5074011;28;20968;-55
2023/05/08 11:04:40;;;;;;;5.87;2.07;;;;;;;;;;5074112;28;20865;-56
2023/05/08 11:07:08;;;;;;;2.97;1.60;;;;;;;;;;5074238;28;20855;-55
2023/05/08 11:09:46;;;;;;;8.33;2.30;;;;;;;;;;5074266;28;20556;-54
2023/05/08 11:12:21;;;;;;;2.20;1.67;;;;;;;;;;5074039;28;20476;-56
2023/05/08 11:14:55;;;;;;;1.67;1.57;;;;;;;;;;5073736;28;20482;-55
2023/05/08 11:17:23;;;;;;;1.90;1.80;;;;;;;;;;5074107;28;20460;-56
2023/05/08 11:19:59;;;;;;;4.50;1.50;;;;;;;;;;5074016;28;20961;-56
2023/05/08 11:22:27;;;;;;;6.10;2.00;;;;;;;;;;5073769;28;20448;-57
2023/05/08 11:24:56;;;;;;;1.50;1.40;;;;;;;;;;5073765;28;20456;-56
2023/05/08 11:27:39;;;;;;;3.37;2.00;;;;;;;;;;5073526;28;20548;-57
2023/05/08 11:30:19;;;;;;;2.77;1.97;;;;;;;;;;5073682;28;20452;-58
2023/05/08 11:33:04;;;;;;;2.17;1.90;;;;;;;;;;5073569;28;20783;-56
2023/05/08 11:35:42;;;;;;;2.67;1.73;;;;;;;;;;5063400;28;20457;-54
2023/05/08 11:38:15;;;;;;;2.17;1.30;;;;;;;;;;5073572;28;20484;-57
2023/05/08 11:40:46;;;;;;;5.13;2.03;;;;;;;;;;5073383;28;20477;-54
2023/05/08 11:43:20;;;;;;;2.10;1.73;;;;;;;;;;5073310;28;20482;-52
2023/05/08 11:45:47;;;;;;;5.18;2.30;;;;;;;;;;5072583;28;20711;-55
2023/05/08 11:48:15;;;;;;;1.70;1.60;;;;;;;;;;5073216;28;20187;-50
2023/05/08 11:50:43;;;;;;;2.10;1.80;;;;;;;;;;5073419;28;20496;-54
2023/05/08 11:53:10;;;;;;;17.90;2.50;;;;;;;;;;5073402;28;20479;-52
2023/05/08 11:55:37;;;;;;;1.97;1.87;;;;;;;;;;5072924;28;20519;-49
2023/05/08 11:58:12;;;;;;;1.77;1.67;;;;;;;;;;5073072;28;20552;-50
2023/05/08 12:00:43;;;;;;;3.80;1.67;;;;;;;;;;5072958;28;20856;-51
2023/05/08 12:03:12;;;;;;;1.63;1.53;;;;;;;;;;5073029;28;20493;-54
2023/05/08 12:05:39;;;;;;;2.73;2.20;;;;;;;;;;5072997;28;20461;-51
2023/05/08 12:08:07;;;;;;;2.10;1.80;;;;;;;;;;5072941;28;20472;-55
2023/05/08 12:10:40;;;;;;;3.00;1.70;;;;;;;;;;5072901;28;20987;-52
2023/05/08 12:13:16;;;;;;;1.63;1.53;;;;;;;;;;5072727;28;20487;-54
2023/05/08 12:15:43;;;;;;;3.73;1.60;;;;;;;;;;5072893;28;21012;-56
2023/05/08 12:18:10;;;;;;;1.87;1.47;;;;;;;;;;5072807;28;20575;-56
2023/05/08 12:20:37;;;;;;;4.60;1.83;;;;;;;;;;5072843;28;20450;-54
2023/05/08 12:23:04;;;;;;;2.07;1.87;;;;;;;;;;5072797;28;20532;-54
2023/05/08 12:25:32;;;;;;;4.90;2.10;;;;;;;;;;5072511;28;20477;-54
2023/05/08 12:28:00;;;;;;;3.40;1.43;;;;;;;;;;5072859;28;20458;-55
2023/05/08 12:30:27;;;;;;;1.73;1.60;;;;;;;;;;5072613;28;21012;-53
2023/05/08 12:32:54;;;;;;;2.70;1.53;;;;;;;;;;5080222;28;20469;-55
2023/05/08 12:35:21;;;;;;;2.40;1.57;;;;;;;;;;5081224;28;20849;-52
2023/05/08 12:37:48;;;;;;;2.70;1.90;;;;;;;;;;5082258;28;20844;-56
2023/05/08 12:40:28;;;;;;;2.70;1.90;;;;;;;;;;5075661;28;20446;-53
2023/05/08 12:42:56;;;;;;;1.73;1.33;;;;;;;;;;5092670;28;20536;-56
2023/05/08 12:45:25;;;;;;;2.37;1.70;;;;;;;;;;5092747;28;20456;-55
2023/05/08 12:47:53;;;;;;;2.20;2.00;;;;;;;;;;5092613;28;20453;-57
2023/05/08 12:50:21;;;;;;;2.80;1.67;;;;;;;;;;5092597;28;20458;-56
2023/05/08 12:52:48;;;;;;;3.83;1.67;;;;;;;;;;5092619;28;20449;-56
2023/05/08 12:55:21;;;;;;;4.13;2.13;;;;;;;;;;5092899;28;20524;-56
2023/05/08 12:57:48;;;;;;;3.97;1.87;;;;;;;;;;5092893;28;20512;-55
2023/05/08 13:00:17;;;;;;;2.93;1.40;;;;;;;;;;5092547;28;20451;-56
2023/05/08 13:02:52;;;;;;;3.53;2.00;;;;;;;;;;5072812;28;20446;-54
2023/05/08 13:05:19;;;;;;;5.53;1.50;;;;;;;;;;5072468;28;20460;-55
2023/05/08 13:07:46;;;;;;;1.80;1.70;;;;;;;;;;5074543;28;20546;-56
2023/05/08 13:10:13;;;;;;;1.47;1.37;;;;;;;;;;5076380;28;20453;-55
2023/05/08 13:12:40;;;;;;;13.90;3.10;;;;;;;;;;5076320;28;20473;-55
2023/05/08 13:15:08;;;;;;;1.80;1.63;;;;;;;;;;5076069;28;20568;-57
2023/05/08 13:17:36;;;;;;;5.37;1.60;;;;;;;;;;5076126;28;20533;-54
2023/05/08 13:20:03;;;;;;;1.60;1.50;;;;;;;;;;5085311;28;20456;-57
2023/05/08 13:22:30;;;;;;;9.13;1.80;;;;;;;;;;5096283;28;20814;-53
2023/05/08 13:24:57;;;;;;;13.57;2.10;;;;;;;;;;5090889;28;20485;-56
2023/05/08 13:27:24;;;;;;;2.03;1.77;;;;;;;;;;5087190;28;20445;-54
2023/05/08 13:29:51;;;;;;;2.17;1.97;;;;;;;;;;5085300;28;20852;-56
2023/05/08 13:32:18;;;;;;;3.03;1.87;;;;;;;;;;5088044;28;20456;-56
2023/05/08 13:34:46;;;;;;;7.50;1.87;;;;;;;;;;5096093;28;20573;-51
2023/05/08 13:37:13;;;;;;;66.17;6.70;;;;;;;;;;5095990;28;20548;-56
2023/05/08 13:39:40;;;;;;;8.40;2.37;;;;;;;;;;5096011;28;20449;-55
2023/05/08 13:42:07;;;;;;;1.90;1.80;;;;;;;;;;5086665;28;20996;-53
2023/05/08 13:44:34;;;;;;;3.63;1.90;;;;;;;;;;5084180;28;20530;-50
2023/05/08 13:47:01;;;;;;;2.03;1.50;;;;;;;;;;5080259;28;20453;-56
2023/05/08 13:49:28;;;;;;;5.23;1.87;;;;;;;;;;5086409;28;20445;-56
2023/05/08 13:51:56;;;;;;;1.70;1.60;;;;;;;;;;5083525;28;20564;-54
2023/05/08 13:54:23;;;;;;;14.97;3.13;;;;;;;;;;5075561;28;20837;-56
2023/05/08 13:56:50;;;;;;;18.13;3.03;;;;;;;;;;5075348;28;20454;-54
2023/05/08 13:59:17;;;;;;;3.43;1.83;;;;;;;;;;5075340;28;20448;-56
2023/05/08 14:01:44;;;;;;;6.60;2.10;;;;;;;;;;5075613;28;20497;-56
2023/05/08 14:04:11;;;;;;;41.27;4.00;;;;;;;;;;5086248;28;20454;-55
2023/05/08 14:06:38;;;;;;;14.90;3.87;;;;;;;;;;5084243;28;20481;-52
2023/05/08 14:09:06;;;;;;;277.47;20.23;;;;;;;;;;5076856;28;20461;-54
2023/05/08 14:11:33;;;;;;;11.20;3.03;;;;;;;;;;5075225;28;20450;-57
2023/05/08 14:14:00;;;;;;;2.20;1.80;;;;;;;;;;5074977;28;20478;-52
2023/05/08 14:16:27;;;;;;;3.17;1.67;;;;;;;;;;5075187;28;20953;-56
2023/05/08 14:18:54;;;;;;;2.40;1.80;;;;;;;;;;5075290;28;20455;-54
2023/05/08 14:21:21;;;;;;;3.13;1.90;;;;;;;;;;5075013;28;20450;-52
2023/05/08 14:23:48;;;;;;;5.40;1.60;;;;;;;;;;5075109;28;20454;-54
2023/05/08 14:26:16;;;;;;;1.57;1.47;;;;;;;;;;5074978;28;20454;-51
2023/05/08 14:28:43;;;;;;;1.60;1.50;;;;;;;;;;5075188;28;20538;-52
2023/05/08 14:31:10;;;;;;;2.37;1.43;;;;;;;;;;5075035;28;20541;-51
2023/05/08 14:33:37;;;;;;;5.40;1.90;;;;;;;;;;5081615;28;20453;-50
2023/05/08 14:36:04;;;;;;;2.27;2.07;;;;;;;;;;5086407;28;20447;-51
2023/05/08 14:38:31;;;;;;;2.10;1.90;;;;;;;;;;5084847;28;20538;-57
2023/05/08 14:40:58;;;;;;;1.70;1.60;;;;;;;;;;5087100;28;20497;-57
2023/05/08 14:43:27;;;;;;;4.45;1.80;;;;;;;;;;5073925;28;20450;-58
2023/05/08 14:45:53;;;;;;;1.97;1.50;;;;;;;;;;5089827;28;20196;-57
2023/05/08 14:48:20;;;;;;;6.30;2.20;;;;;;;;;;5094706;28;20446;-57
2023/05/08 14:50:47;;;;;;;4.90;2.03;;;;;;;;;;5094221;28;20802;-58